createdAt,value
2019-04-06T00:00:41.838Z,36.50
2019-04-06T00:03:19.484Z,33.57
2019-04-06T00:06:01.526Z,33.10
2019-04-06T00:08:42.937Z,34.03
2019-04-06T00:11:21.804Z,31.03
2019-04-06T00:14:03.530Z,32.87
2019-04-06T00:16:53.507Z,32.13
2019-04-06T00:19:33.198Z,34.70
2019-04-06T00:22:20.762Z,37.83
2019-04-06T00:24:59.487Z,35.70
2019-04-06T00:27:52.033Z,37.00
2019-04-06T00:30:41.090Z,39.20
2019-04-06T00:33:27.089Z,34.83
2019-04-06T00:36:21.748Z,29.70
2019-04-06T00:39:05.573Z,34.07
2019-04-06T00:42:00.067Z,32.13
2019-04-06T00:44:41.523Z,32.27
2019-04-06T00:47:23.524Z,36.10
2019-04-06T00:50:12.828Z,38.93
2019-04-06T00:53:13.084Z,37.70
2019-04-06T00:55:56.021Z,35.40
2019-04-06T00:58:43.318Z,41.80
2019-04-06T01:01:25.576Z,39.93
2019-04-06T01:04:07.494Z,41.63
2019-04-06T01:06:53.535Z,44.63
2019-04-06T01:09:48.209Z,36.53
2019-04-06T01:13:01.869Z,43.67
2019-04-06T01:15:45.951Z,43.67
2019-04-06T01:18:27.290Z,40.57
2019-04-06T01:24:11.673Z,42.40
2019-04-06T01:26:59.525Z,40.10
2019-04-06T01:29:55.588Z,42.77
2019-04-06T01:32:39.215Z,43.60
2019-04-06T01:35:39.075Z,42.93
2019-04-06T01:38:29.616Z,40.73
2019-04-06T01:41:16.938Z,43.77
2019-04-06T01:43:55.728Z,43.10
2019-04-06T01:46:43.514Z,43.43
2019-04-06T01:49:29.030Z,41.17
2019-04-06T01:52:12.277Z,40.20
2019-04-06T01:54:51.057Z,41.20
2019-04-06T01:57:44.172Z,47.17
2019-04-06T02:00:26.168Z,37.17
2019-04-06T02:03:25.904Z,40.67
2019-04-06T02:06:09.050Z,44.10
2019-04-06T02:09:04.655Z,38.73
2019-04-06T02:11:46.368Z,41.77
2019-04-06T02:14:27.407Z,38.80
2019-04-06T02:17:13.105Z,45.57
2019-04-06T02:19:53.606Z,42.67
2019-04-06T02:22:42.995Z,47.67
2019-04-06T02:25:25.716Z,43.50
2019-04-06T02:28:14.043Z,39.47
2019-04-06T02:31:15.031Z,43.43
2019-04-06T02:34:18.483Z,45.37
2019-04-06T02:37:10.235Z,42.57
2019-04-06T02:39:56.112Z,46.83
2019-04-06T02:43:03.800Z,39.50
2019-04-06T02:45:57.155Z,42.90
2019-04-06T02:48:42.820Z,42.73
2019-04-06T02:51:25.189Z,42.93
2019-04-06T02:54:16.682Z,42.83
2019-04-06T02:56:57.751Z,45.20
2019-04-06T02:59:50.629Z,41.30
2019-04-06T03:02:43.127Z,43.70
2019-04-06T03:05:32.077Z,34.30
2019-04-06T03:08:16.373Z,44.60
2019-04-06T03:11:07.476Z,49.23
2019-04-06T03:13:56.518Z,50.30
2019-04-06T03:16:43.412Z,40.90
2019-04-06T03:19:45.144Z,44.53
2019-04-06T03:22:29.120Z,46.63
2019-04-06T03:25:21.167Z,42.10
2019-04-06T03:28:01.593Z,42.13
2019-04-06T03:30:50.363Z,38.93
2019-04-06T03:33:43.206Z,39.67
2019-04-06T03:36:45.704Z,43.70
2019-04-06T03:39:39.478Z,45.47
2019-04-06T03:42:39.732Z,46.40
2019-04-06T03:45:27.675Z,44.73
2019-04-06T03:48:22.654Z,43.37
2019-04-06T03:51:13.500Z,42.47
2019-04-06T03:54:06.996Z,46.10
2019-04-06T03:56:55.330Z,40.83
2019-04-06T03:59:56.234Z,38.80
2019-04-06T04:02:39.117Z,41.57
2019-04-06T04:05:27.488Z,43.07
2019-04-06T04:08:07.840Z,43.70
2019-04-06T04:11:08.919Z,43.27
2019-04-06T04:14:00.803Z,45.83
2019-04-06T04:16:48.702Z,47.00
2019-04-06T04:19:38.105Z,46.13
2019-04-06T04:22:19.630Z,48.20
2019-04-06T04:25:29.304Z,44.53
2019-04-06T04:28:11.251Z,47.10
2019-04-06T04:30:55.293Z,47.77
2019-04-06T04:33:43.422Z,44.97
2019-04-06T04:36:25.605Z,40.23
2019-04-06T04:39:11.341Z,38.70
2019-04-06T04:42:10.870Z,40.03
2019-04-06T04:45:07.111Z,38.70
2019-04-06T04:47:57.220Z,31.80
2019-04-06T04:50:53.844Z,40.57
2019-04-06T04:53:56.133Z,41.70
2019-04-06T04:56:43.636Z,45.23
2019-04-06T04:59:34.361Z,44.33
2019-04-06T05:02:24.077Z,41.27
2019-04-06T05:05:16.908Z,39.87
2019-04-06T05:08:26.341Z,37.03
2019-04-06T05:11:09.944Z,35.50
2019-04-06T05:13:57.280Z,41.53
2019-04-06T05:17:08.141Z,37.90
2019-04-06T05:20:13.235Z,39.20
2019-04-06T05:23:04.004Z,45.43
2019-04-06T05:25:54.830Z,51.40
2019-04-06T05:29:07.720Z,46.63
2019-04-06T05:32:34.740Z,41.47
2019-04-06T05:35:31.106Z,38.33
2019-04-06T05:38:14.754Z,42.53
2019-04-06T05:41:07.124Z,43.40
2019-04-06T05:43:49.629Z,43.80
2019-04-06T05:46:39.277Z,44.90
2019-04-06T05:49:31.691Z,44.20
2019-04-06T05:52:37.069Z,41.87
2019-04-06T05:55:31.090Z,41.70
2019-04-06T05:58:10.592Z,42.50
2019-04-06T06:01:00.067Z,42.10
2019-04-06T06:03:50.149Z,43.63
2019-04-06T06:06:39.093Z,49.40
2019-04-06T06:09:46.105Z,45.43
2019-04-06T06:12:34.801Z,45.47
2019-04-06T06:15:20.673Z,44.63
2019-04-06T06:18:03.163Z,43.83
2019-04-06T06:20:49.999Z,45.20
2019-04-06T06:23:37.210Z,45.17
2019-04-06T06:26:17.461Z,45.00
2019-04-06T06:28:58.863Z,37.43
2019-04-06T06:31:55.943Z,39.50
2019-04-06T06:34:37.185Z,36.77
2019-04-06T06:40:45.697Z,42.77
2019-04-06T06:43:31.615Z,42.83
2019-04-06T06:46:26.054Z,41.03
2019-04-06T06:49:16.511Z,36.80
2019-04-06T06:52:27.045Z,35.67
2019-04-06T06:55:22.541Z,36.73
2019-04-06T06:58:25.269Z,38.57
2019-04-06T07:01:12.125Z,38.47
2019-04-06T07:03:57.077Z,38.03
2019-04-06T07:06:52.201Z,44.33
2019-04-06T07:09:42.770Z,44.00
2019-04-06T07:12:58.933Z,35.93
2019-04-06T07:15:36.300Z,42.83
2019-04-06T07:18:21.765Z,38.57
2019-04-06T07:21:16.470Z,46.83
2019-04-06T07:23:57.635Z,39.60
2019-04-06T07:27:09.639Z,43.60
2019-04-06T07:30:14.508Z,41.10
2019-04-06T07:32:59.451Z,40.40
2019-04-06T07:36:19.655Z,43.07
2019-04-06T07:39:26.058Z,40.57
2019-04-06T07:42:27.408Z,37.40
2019-04-06T07:45:13.744Z,37.73
2019-04-06T07:48:02.233Z,35.07
2019-04-06T07:50:47.155Z,42.87
2019-04-06T07:53:44.190Z,34.00
2019-04-06T07:56:30.241Z,37.13
2019-04-06T07:59:22.257Z,38.30
2019-04-06T08:02:17.393Z,37.05
2019-04-06T08:05:04.155Z,37.83
2019-04-06T08:08:07.611Z,35.92
2019-04-06T08:10:51.809Z,36.42
2019-04-06T08:13:33.830Z,33.55
2019-04-06T08:16:32.659Z,37.98
2019-04-06T08:19:16.501Z,37.45
2019-04-06T08:22:03.665Z,37.13
2019-04-06T08:25:03.671Z,39.55
2019-04-06T08:27:54.967Z,39.15
2019-04-06T08:30:46.831Z,38.13
2019-04-06T08:33:34.247Z,35.28
2019-04-06T08:36:32.792Z,38.60
2019-04-06T08:39:35.996Z,45.55
2019-04-06T08:42:15.302Z,36.83
2019-04-06T08:44:57.841Z,40.28
2019-04-06T08:47:45.962Z,39.95
2019-04-06T08:50:36.960Z,39.10
2019-04-06T08:53:25.431Z,41.80
2019-04-06T08:56:14.611Z,35.05
2019-04-06T08:59:12.165Z,42.10
2019-04-06T09:02:28.253Z,37.88
2019-04-06T09:05:24.681Z,35.63
2019-04-06T09:08:10.651Z,36.65
2019-04-06T09:11:05.089Z,41.45
2019-04-06T09:17:07.369Z,42.88
2019-04-06T09:19:52.946Z,36.00
2019-04-06T09:22:32.086Z,39.45
2019-04-06T09:25:20.886Z,40.48
2019-04-06T09:28:20.522Z,39.15
2019-04-06T09:31:10.908Z,44.27
2019-04-06T09:33:56.164Z,43.38
2019-04-06T09:36:49.686Z,39.98
2019-04-06T09:39:36.250Z,41.30
2019-04-06T09:42:17.086Z,44.00
2019-04-06T09:45:05.586Z,36.97
2019-04-06T09:48:35.984Z,36.40
2019-04-06T09:51:41.365Z,38.57
2019-04-06T09:54:27.916Z,37.77
2019-04-06T09:57:11.292Z,33.30
2019-04-06T10:00:11.514Z,39.70
2019-04-06T10:02:58.392Z,39.50
2019-04-06T10:06:03.066Z,39.80
2019-04-06T10:08:57.512Z,36.70
2019-04-06T10:11:49.328Z,39.80
2019-04-06T10:14:44.932Z,40.90
2019-04-06T10:17:54.187Z,44.33
2019-04-06T10:20:38.296Z,40.57
2019-04-06T10:23:40.052Z,40.63
2019-04-06T10:26:30.605Z,42.00
2019-04-06T10:29:29.954Z,41.63
2019-04-06T10:32:37.750Z,41.43
2019-04-06T10:39:29.053Z,42.10
2019-04-06T10:42:41.293Z,40.03
2019-04-06T10:45:30.513Z,41.47
2019-04-06T10:48:26.238Z,43.67
2019-04-06T10:51:22.516Z,41.50
2019-04-06T10:54:41.521Z,43.03
2019-04-06T10:57:29.933Z,43.40
2019-04-06T11:00:35.404Z,42.23
2019-04-06T11:03:38.351Z,37.33
2019-04-06T11:06:24.031Z,38.50
2019-04-06T11:09:20.154Z,43.20
2019-04-06T11:12:24.237Z,37.73
2019-04-06T11:15:21.432Z,38.70
2019-04-06T11:18:37.416Z,43.87
2019-04-06T11:21:34.859Z,41.77
2019-04-06T11:24:42.167Z,43.43
2019-04-06T11:27:39.686Z,32.77
2019-04-06T11:30:26.428Z,30.63
2019-04-06T11:33:44.404Z,33.47
2019-04-06T11:36:22.288Z,33.13
2019-04-06T11:39:21.053Z,31.62
2019-04-06T11:42:10.812Z,35.87
2019-04-06T11:44:58.360Z,41.05
2019-04-06T11:47:58.127Z,41.42
2019-04-06T11:50:53.322Z,35.48
2019-04-06T11:53:38.427Z,33.02
2019-04-06T11:56:34.169Z,36.68
2019-04-06T11:59:40.459Z,34.78
2019-04-06T12:03:00.515Z,33.15
2019-04-06T12:05:52.649Z,36.10
2019-04-06T12:09:20.301Z,34.18
2019-04-06T12:12:12.732Z,31.57
2019-04-06T12:15:06.834Z,29.65
2019-04-06T12:18:01.362Z,32.05
2019-04-06T12:20:54.455Z,28.40
2019-04-06T12:23:57.584Z,31.82
2019-04-06T12:26:48.599Z,56.25
2019-04-06T12:29:53.202Z,30.82
2019-04-06T12:32:57.182Z,31.85
2019-04-06T12:35:43.136Z,31.05
2019-04-06T12:41:48.406Z,27.67
2019-04-06T12:44:50.727Z,26.75
2019-04-06T12:47:48.435Z,24.98
2019-04-06T12:51:02.611Z,29.50
2019-04-06T12:54:02.205Z,32.38
2019-04-06T12:57:03.564Z,27.93
2019-04-06T12:59:58.319Z,29.65
2019-04-06T13:02:56.868Z,43.38
2019-04-06T13:06:03.473Z,34.80
2019-04-06T13:08:57.170Z,32.40
2019-04-06T13:11:57.957Z,30.88
2019-04-06T13:14:42.813Z,39.15
2019-04-06T13:17:48.551Z,43.52
2019-04-06T13:20:48.871Z,31.57
2019-04-06T13:23:40.709Z,39.23
2019-04-06T13:26:41.154Z,33.83
2019-04-06T13:29:43.661Z,34.50
2019-04-06T13:32:28.591Z,28.62
2019-04-06T13:35:37.727Z,30.75
2019-04-06T13:38:34.595Z,31.87
2019-04-06T13:41:51.524Z,32.03
2019-04-06T13:44:57.167Z,36.42
2019-04-06T13:47:51.567Z,29.65
2019-04-06T13:51:01.110Z,33.38
2019-04-06T13:53:56.514Z,36.08
2019-04-06T13:56:58.527Z,38.83
2019-04-06T14:00:09.333Z,28.77
2019-04-06T14:03:27.847Z,32.25
2019-04-06T14:06:49.468Z,34.25
2019-04-06T14:09:52.896Z,57.40
2019-04-06T14:12:44.011Z,32.55
2019-04-06T14:15:39.348Z,30.08
2019-04-06T14:19:10.457Z,34.20
2019-04-06T14:21:56.101Z,31.25
2019-04-06T14:24:40.755Z,30.70
2019-04-06T14:27:32.657Z,28.10
2019-04-06T14:30:12.345Z,33.08
2019-04-06T14:33:03.382Z,38.75
2019-04-06T14:35:48.039Z,35.05
2019-04-06T14:38:43.536Z,34.43
2019-04-06T14:41:40.021Z,28.80
2019-04-06T14:44:48.254Z,29.15
2019-04-06T14:47:42.762Z,28.80
2019-04-06T14:50:38.629Z,31.42
2019-04-06T15:36:15.691Z,29.80
2019-04-06T15:39:07.553Z,28.03
2019-04-06T15:41:59.349Z,29.83
2019-04-06T15:44:41.875Z,34.58
2019-04-06T15:47:33.063Z,28.00
2019-04-06T15:50:15.761Z,28.53
2019-04-06T15:53:01.454Z,27.20
2019-04-06T15:55:40.555Z,27.80
2019-04-06T15:58:20.574Z,31.30
2019-04-06T16:01:03.870Z,23.35
2019-04-06T16:04:01.224Z,25.80
2019-04-06T16:06:48.856Z,28.62
2019-04-06T16:09:41.791Z,29.20
2019-04-06T16:12:23.888Z,25.97
2019-04-06T16:15:02.855Z,26.55
2019-04-06T16:17:42.315Z,31.35
2019-04-06T16:20:39.692Z,26.27
2019-04-06T16:23:27.726Z,39.37
2019-04-06T16:26:09.383Z,38.87
2019-04-06T16:28:51.954Z,42.93
2019-04-06T16:31:31.592Z,37.03
2019-04-06T16:34:26.855Z,34.97
2019-04-06T16:37:15.053Z,32.77
2019-04-06T16:39:54.179Z,31.00
2019-04-06T16:42:33.449Z,31.77
2019-04-06T16:45:12.620Z,28.90
2019-04-06T16:47:54.615Z,31.83
2019-04-06T16:50:50.199Z,31.27
2019-04-06T16:53:31.919Z,27.87
2019-04-06T16:56:13.580Z,31.00
2019-04-06T16:58:58.691Z,27.13
2019-04-06T17:01:49.244Z,27.47
2019-04-06T17:04:28.166Z,24.03
2019-04-06T17:07:07.118Z,23.33
2019-04-06T17:09:48.967Z,18.67
2019-04-06T17:12:37.191Z,19.90
2019-04-06T17:15:25.270Z,19.73
2019-04-06T17:18:20.858Z,18.77
2019-04-06T17:21:00.040Z,19.73
2019-04-06T17:23:38.972Z,18.63
2019-04-06T17:26:17.886Z,20.30
2019-04-06T17:28:59.997Z,19.30
2019-04-06T17:31:56.377Z,18.77
2019-04-06T17:37:55.492Z,7.83
2019-04-06T17:40:43.388Z,10.30
2019-04-06T17:43:38.467Z,6.43
2019-04-06T17:46:23.332Z,7.10
2019-04-06T17:49:14.307Z,11.27
2019-04-06T18:03:28.482Z,11.07
2019-04-06T18:07:04.867Z,11.17
2019-04-06T18:10:02.462Z,9.07
2019-04-06T18:13:06.754Z,7.80
2019-04-06T18:16:16.568Z,8.00
2019-04-06T18:18:48.686Z,8.60
2019-04-06T18:21:26.624Z,5.87
2019-04-06T18:24:04.285Z,6.73
2019-04-06T18:26:42.481Z,7.40
2019-04-06T18:29:22.089Z,7.50
2019-04-06T18:32:02.966Z,10.43
2019-04-06T18:34:42.169Z,9.60
2019-04-06T18:37:21.382Z,10.53
2019-04-06T18:40:00.387Z,11.13
2019-04-06T18:42:37.646Z,11.57
2019-04-06T18:45:15.350Z,12.73
2019-04-06T18:47:53.110Z,15.53
2019-04-06T18:50:35.922Z,15.23
2019-04-06T18:53:09.432Z,12.07
2019-04-06T18:55:52.727Z,10.23
2019-04-06T18:58:30.119Z,16.73
2019-04-06T19:01:08.948Z,19.77
2019-04-06T19:03:46.301Z,19.07
2019-04-06T19:06:23.815Z,19.90
2019-04-06T19:09:01.068Z,19.53
2019-04-06T19:11:38.350Z,19.43
2019-04-06T19:14:15.921Z,56.80
2019-04-06T19:16:53.527Z,29.30
2019-04-06T19:19:39.010Z,18.30
2019-04-06T19:22:16.355Z,22.20
2019-04-06T19:24:54.424Z,18.53
2019-04-06T19:27:31.670Z,19.90
2019-04-06T19:30:09.306Z,18.07
2019-04-06T19:32:46.602Z,22.33
2019-04-06T19:35:23.806Z,19.93
2019-04-06T19:38:01.037Z,20.57
2019-04-06T19:40:38.268Z,24.07
2019-04-06T19:43:17.327Z,36.10
2019-04-06T19:45:54.844Z,35.57
2019-04-06T19:48:32.154Z,36.47
2019-04-06T19:51:10.365Z,30.27
2019-04-06T19:53:48.295Z,28.77
2019-04-06T19:56:25.672Z,30.67
2019-04-06T19:59:03.252Z,25.47
2019-04-06T20:01:40.370Z,26.50
2019-04-06T20:04:17.645Z,24.60
2019-04-06T20:06:54.809Z,28.13
2019-04-06T20:09:32.075Z,25.60
2019-04-06T20:12:09.306Z,28.40
2019-04-06T20:17:35.907Z,28.03
2019-04-06T20:20:13.215Z,31.43
2019-04-06T20:22:50.476Z,30.93
2019-04-06T20:25:27.712Z,35.70
2019-04-06T20:28:05.397Z,42.23
2019-04-06T20:30:42.906Z,37.03
2019-04-06T20:33:20.606Z,39.50
2019-04-06T20:35:57.866Z,28.07
2019-04-06T20:38:36.728Z,31.93
2019-04-06T20:41:13.915Z,25.43
2019-04-06T20:43:51.916Z,27.97
2019-04-06T20:46:29.031Z,27.57
2019-04-06T20:49:07.667Z,34.60
2019-04-06T20:51:50.629Z,40.23
2019-04-06T20:54:28.234Z,38.10
2019-04-06T20:57:05.863Z,35.23
2019-04-06T20:59:43.827Z,36.70
2019-04-06T21:02:43.341Z,36.77
2019-04-06T21:05:27.003Z,30.47
2019-04-06T21:08:07.061Z,26.60
2019-04-06T21:10:53.313Z,27.27
2019-04-06T21:13:39.068Z,29.03
2019-04-06T21:16:24.099Z,27.57
2019-04-06T21:19:04.971Z,27.90
2019-04-06T21:21:48.165Z,28.30
2019-04-06T21:24:28.679Z,24.53
2019-04-06T21:27:12.401Z,22.50
2019-04-06T21:29:50.718Z,22.67
2019-04-06T21:32:31.536Z,22.80
2019-04-06T21:35:18.901Z,25.00
2019-04-06T21:38:03.900Z,22.90
2019-04-06T21:40:45.820Z,24.43
2019-04-06T21:43:27.778Z,24.83
2019-04-06T21:46:08.919Z,23.57
2019-04-06T21:48:54.404Z,21.70
2019-04-06T21:51:43.615Z,23.30
2019-04-06T21:54:27.231Z,22.87
2019-04-06T21:57:11.501Z,22.33
2019-04-06T21:59:50.627Z,20.73
2019-04-06T22:02:35.390Z,22.60
2019-04-06T22:05:17.357Z,23.40
2019-04-06T22:07:58.911Z,21.53
2019-04-06T22:10:38.921Z,23.77
2019-04-06T22:13:25.369Z,22.57
2019-04-06T22:16:11.420Z,21.40
2019-04-06T22:19:05.713Z,22.33
2019-04-06T22:22:02.321Z,20.13
2019-04-06T22:24:43.029Z,23.60
2019-04-06T22:27:29.394Z,23.40
2019-04-06T22:30:12.787Z,21.63
2019-04-06T22:33:06.901Z,21.97
2019-04-06T22:35:47.417Z,24.17
2019-04-06T22:38:29.512Z,20.27
2019-04-06T22:41:06.705Z,20.80
2019-04-06T22:43:49.649Z,21.60
2019-04-06T22:46:30.106Z,27.97
2019-04-06T22:49:18.982Z,21.87
2019-04-06T22:51:58.787Z,21.27
2019-04-06T22:54:43.529Z,21.60
2019-04-06T22:57:29.543Z,20.23
2019-04-06T23:00:13.390Z,22.50
2019-04-06T23:03:09.229Z,21.73
2019-04-06T23:05:52.770Z,31.23
2019-04-06T23:08:30.184Z,37.70
2019-04-06T23:11:12.916Z,42.83
2019-04-06T23:14:02.039Z,30.77
2019-04-06T23:16:42.807Z,26.27
2019-04-06T23:19:25.117Z,27.43
2019-04-06T23:22:08.165Z,28.30
2019-04-06T23:24:48.446Z,29.07
2019-04-06T23:27:27.373Z,34.40
2019-04-06T23:30:12.218Z,31.13
2019-04-06T23:32:53.496Z,30.63
2019-04-06T23:35:31.223Z,34.33
2019-04-06T23:38:17.836Z,35.77
2019-04-06T23:41:00.187Z,36.57
2019-04-06T23:43:43.839Z,36.13
2019-04-06T23:46:35.169Z,34.97
2019-04-06T23:49:27.704Z,33.03
2019-04-06T23:52:08.243Z,33.80
2019-04-06T23:54:53.341Z,28.20
2019-04-06T23:58:01.581Z,30.43
